sensor_id;sensor_type;location;lat;lon;timestamp;temperature;humidity
2387;DHT22;49473;50.772;8.768;2023-04-19T00:01:52;10.30;99.90
2387;DHT22;49473;50.772;8.768;2023-04-19T00:04:20;10.40;99.90
2387;DHT22;49473;50.772;8.768;2023-04-19T00:06:48;10.30;99.90
2387;DHT22;49473;50.772;8.768;2023-04-19T00:09:16;10.30;99.90
2387;DHT22;49473;50.772;8.768;2023-04-19T00:11:43;10.30;99.90
2387;DHT22;49473;50.772;8.768;2023-04-19T00:14:09;10.30;99.90
2387;DHT22;49473;50.772;8.768;2023-04-19T00:16:36;10.40;99.90
2387;DHT22;49473;50.772;8.768;2023-04-19T00:19:03;10.40;99.90
2387;DHT22;49473;50.772;8.768;2023-04-19T00:21:30;10.40;99.90
2387;DHT22;49473;50.772;8.768;2023-04-19T00:23:58;10.50;99.90
2387;DHT22;49473;50.772;8.768;2023-04-19T00:26:25;10.40;99.90
2387;DHT22;49473;50.772;8.768;2023-04-19T00:28:51;10.30;99.90
2387;DHT22;49473;50.772;8.768;2023-04-19T00:31:21;10.30;99.90
2387;DHT22;49473;50.772;8.768;2023-04-19T00:33:48;10.20;99.90
2387;DHT22;49473;50.772;8.768;2023-04-19T00:36:15;10.30;99.90
2387;DHT22;49473;50.772;8.768;2023-04-19T00:38:41;10.20;99.90
2387;DHT22;49473;50.772;8.768;2023-04-19T00:41:09;10.30;99.90
2387;DHT22;49473;50.772;8.768;2023-04-19T00:43:36;10.30;99.90
2387;DHT22;49473;50.772;8.768;2023-04-19T00:46:04;10.30;99.90
2387;DHT22;49473;50.772;8.768;2023-04-19T00:48:31;10.20;99.90
2387;DHT22;49473;50.772;8.768;2023-04-19T00:50:59;10.10;99.90
2387;DHT22;49473;50.772;8.768;2023-04-19T00:53:26;10.10;99.90
2387;DHT22;49473;50.772;8.768;2023-04-19T00:55:53;10.10;99.90
2387;DHT22;49473;50.772;8.768;2023-04-19T00:58:24;10.10;99.90
2387;DHT22;49473;50.772;8.768;2023-04-19T01:00:53;10.10;99.90
2387;DHT22;49473;50.772;8.768;2023-04-19T01:03:19;10.30;99.90
2387;DHT22;49473;50.772;8.768;2023-04-19T01:05:46;10.20;99.90
2387;DHT22;49473;50.772;8.768;2023-04-19T01:08:14;10.20;99.90
2387;DHT22;49473;50.772;8.768;2023-04-19T01:10:41;10.20;99.90
2387;DHT22;49473;50.772;8.768;2023-04-19T01:13:07;10.20;99.90
2387;DHT22;49473;50.772;8.768;2023-04-19T01:15:35;10.10;99.90
2387;DHT22;49473;50.772;8.768;2023-04-19T01:18:02;10.10;99.90
2387;DHT22;49473;50.772;8.768;2023-04-19T01:20:29;10.10;99.90
2387;DHT22;49473;50.772;8.768;2023-04-19T01:22:57;10.10;99.90
2387;DHT22;49473;50.772;8.768;2023-04-19T01:25:24;10.20;99.90
2387;DHT22;49473;50.772;8.768;2023-04-19T01:27:50;10.20;99.90
2387;DHT22;49473;50.772;8.768;2023-04-19T01:30:17;10.20;99.90
2387;DHT22;49473;50.772;8.768;2023-04-19T01:32:44;10.20;99.90
2387;DHT22;49473;50.772;8.768;2023-04-19T01:35:11;10.20;99.90
2387;DHT22;49473;50.772;8.768;2023-04-19T01:37:37;10.20;99.90
2387;DHT22;49473;50.772;8.768;2023-04-19T01:40:06;10.20;99.90
2387;DHT22;49473;50.772;8.768;2023-04-19T01:42:33;10.20;99.90
2387;DHT22;49473;50.772;8.768;2023-04-19T01:45:00;10.20;99.90
2387;DHT22;49473;50.772;8.768;2023-04-19T01:47:27;10.10;99.90
2387;DHT22;49473;50.772;8.768;2023-04-19T01:49:54;10.10;99.90
2387;DHT22;49473;50.772;8.768;2023-04-19T01:52:21;10.10;99.90
2387;DHT22;49473;50.772;8.768;2023-04-19T01:54:47;10.20;99.90
2387;DHT22;49473;50.772;8.768;2023-04-19T01:57:15;10.10;99.90
2387;DHT22;49473;50.772;8.768;2023-04-19T01:59:43;10.10;99.90
2387;DHT22;49473;50.772;8.768;2023-04-19T02:02:10;10.00;99.90
2387;DHT22;49473;50.772;8.768;2023-04-19T02:04:36;10.00;99.90
2387;DHT22;49473;50.772;8.768;2023-04-19T02:07:03;10.00;99.90
2387;DHT22;49473;50.772;8.768;2023-04-19T02:09:33;10.00;99.90
2387;DHT22;49473;50.772;8.768;2023-04-19T02:12:00;10.00;99.90
2387;DHT22;49473;50.772;8.768;2023-04-19T02:14:28;10.00;99.90
2387;DHT22;49473;50.772;8.768;2023-04-19T02:16:56;10.00;99.90
2387;DHT22;49473;50.772;8.768;2023-04-19T02:19:23;10.00;99.90
2387;DHT22;49473;50.772;8.768;2023-04-19T02:21:49;10.00;99.90
2387;DHT22;49473;50.772;8.768;2023-04-19T02:24:18;10.00;99.90
2387;DHT22;49473;50.772;8.768;2023-04-19T02:26:44;10.00;99.90
2387;DHT22;49473;50.772;8.768;2023-04-19T02:29:11;10.00;99.90
2387;DHT22;49473;50.772;8.768;2023-04-19T02:31:39;10.00;99.90
2387;DHT22;49473;50.772;8.768;2023-04-19T02:34:06;10.00;99.90
2387;DHT22;49473;50.772;8.768;2023-04-19T02:36:33;10.10;99.90
2387;DHT22;49473;50.772;8.768;2023-04-19T02:38:59;10.10;99.90
2387;DHT22;49473;50.772;8.768;2023-04-19T02:41:26;10.10;99.90
2387;DHT22;49473;50.772;8.768;2023-04-19T02:43:53;10.10;99.90
2387;DHT22;49473;50.772;8.768;2023-04-19T02:46:20;10.10;99.90
2387;DHT22;49473;50.772;8.768;2023-04-19T02:48:48;10.20;99.90
2387;DHT22;49473;50.772;8.768;2023-04-19T02:51:15;10.20;99.90
2387;DHT22;49473;50.772;8.768;2023-04-19T02:53:42;10.10;99.90
2387;DHT22;49473;50.772;8.768;2023-04-19T02:56:09;10.10;99.90
2387;DHT22;49473;50.772;8.768;2023-04-19T02:58:36;10.10;99.90
2387;DHT22;49473;50.772;8.768;2023-04-19T03:01:02;10.10;99.90
2387;DHT22;49473;50.772;8.768;2023-04-19T03:03:29;10.10;99.90
2387;DHT22;49473;50.772;8.768;2023-04-19T03:05:57;10.20;99.90
2387;DHT22;49473;50.772;8.768;2023-04-19T03:08:24;10.20;99.90
2387;DHT22;49473;50.772;8.768;2023-04-19T03:10:51;10.20;99.90
2387;DHT22;49473;50.772;8.768;2023-04-19T03:13:18;10.20;99.90
2387;DHT22;49473;50.772;8.768;2023-04-19T03:15:45;10.20;99.90
2387;DHT22;49473;50.772;8.768;2023-04-19T03:18:12;10.20;99.90
2387;DHT22;49473;50.772;8.768;2023-04-19T03:20:39;10.20;99.90
2387;DHT22;49473;50.772;8.768;2023-04-19T03:23:07;10.20;99.90
2387;DHT22;49473;50.772;8.768;2023-04-19T03:25:34;10.20;99.90
2387;DHT22;49473;50.772;8.768;2023-04-19T03:28:01;10.20;99.90
2387;DHT22;49473;50.772;8.768;2023-04-19T03:30:28;10.20;99.90
2387;DHT22;49473;50.772;8.768;2023-04-19T03:32:56;10.10;99.90
2387;DHT22;49473;50.772;8.768;2023-04-19T03:35:23;10.10;99.90
2387;DHT22;49473;50.772;8.768;2023-04-19T03:37:50;10.10;99.90
2387;DHT22;49473;50.772;8.768;2023-04-19T03:40:19;10.10;99.90
2387;DHT22;49473;50.772;8.768;2023-04-19T03:42:46;10.10;99.90
2387;DHT22;49473;50.772;8.768;2023-04-19T03:45:13;10.10;99.90
2387;DHT22;49473;50.772;8.768;2023-04-19T03:47:39;10.10;99.90
2387;DHT22;49473;50.772;8.768;2023-04-19T03:50:07;10.10;99.90
2387;DHT22;49473;50.772;8.768;2023-04-19T03:52:34;10.10;99.90
2387;DHT22;49473;50.772;8.768;2023-04-19T03:55:01;10.00;99.90
2387;DHT22;49473;50.772;8.768;2023-04-19T03:57:29;10.00;99.90
2387;DHT22;49473;50.772;8.768;2023-04-19T03:59:56;10.00;99.90
2387;DHT22;49473;50.772;8.768;2023-04-19T04:02:22;9.90;99.90
2387;DHT22;49473;50.772;8.768;2023-04-19T04:04:52;10.00;99.90
2387;DHT22;49473;50.772;8.768;2023-04-19T04:07:19;10.00;99.90
2387;DHT22;49473;50.772;8.768;2023-04-19T04:09:47;10.00;99.90
2387;DHT22;49473;50.772;8.768;2023-04-19T04:12:14;10.10;99.90
2387;DHT22;49473;50.772;8.768;2023-04-19T04:14:43;10.10;99.90
2387;DHT22;49473;50.772;8.768;2023-04-19T04:17:09;10.10;99.90
2387;DHT22;49473;50.772;8.768;2023-04-19T04:19:36;10.10;99.90
2387;DHT22;49473;50.772;8.768;2023-04-19T04:22:03;10.10;99.90
2387;DHT22;49473;50.772;8.768;2023-04-19T04:24:30;10.10;99.90
2387;DHT22;49473;50.772;8.768;2023-04-19T04:26:57;10.10;99.90
2387;DHT22;49473;50.772;8.768;2023-04-19T04:29:25;10.00;99.90
2387;DHT22;49473;50.772;8.768;2023-04-19T04:31:55;10.10;99.90
2387;DHT22;49473;50.772;8.768;2023-04-19T04:34:22;10.10;99.90
2387;DHT22;49473;50.772;8.768;2023-04-19T04:36:49;10.10;99.90
2387;DHT22;49473;50.772;8.768;2023-04-19T04:39:15;10.10;99.90
2387;DHT22;49473;50.772;8.768;2023-04-19T04:41:42;10.10;99.90
2387;DHT22;49473;50.772;8.768;2023-04-19T04:44:10;10.00;99.90
2387;DHT22;49473;50.772;8.768;2023-04-19T04:46:37;9.90;99.90
2387;DHT22;49473;50.772;8.768;2023-04-19T04:49:05;9.90;99.90
2387;DHT22;49473;50.772;8.768;2023-04-19T04:51:32;9.90;99.90
2387;DHT22;49473;50.772;8.768;2023-04-19T04:53:59;9.90;99.90
2387;DHT22;49473;50.772;8.768;2023-04-19T04:56:26;9.90;99.90
2387;DHT22;49473;50.772;8.768;2023-04-19T04:58:52;9.90;99.90
2387;DHT22;49473;50.772;8.768;2023-04-19T05:01:20;9.90;99.90
2387;DHT22;49473;50.772;8.768;2023-04-19T05:03:48;9.80;99.90
2387;DHT22;49473;50.772;8.768;2023-04-19T05:06:16;9.80;99.90
2387;DHT22;49473;50.772;8.768;2023-04-19T05:08:43;9.80;99.90
2387;DHT22;49473;50.772;8.768;2023-04-19T05:11:10;9.80;99.90
2387;DHT22;49473;50.772;8.768;2023-04-19T05:13:37;9.80;99.90
2387;DHT22;49473;50.772;8.768;2023-04-19T05:16:04;9.70;99.90
2387;DHT22;49473;50.772;8.768;2023-04-19T05:18:31;9.70;99.90
2387;DHT22;49473;50.772;8.768;2023-04-19T05:20:58;9.70;99.90
2387;DHT22;49473;50.772;8.768;2023-04-19T05:23:26;9.60;99.90
2387;DHT22;49473;50.772;8.768;2023-04-19T05:25:52;9.60;99.90
2387;DHT22;49473;50.772;8.768;2023-04-19T05:28:19;9.60;99.90
2387;DHT22;49473;50.772;8.768;2023-04-19T05:30:46;9.60;99.90
2387;DHT22;49473;50.772;8.768;2023-04-19T05:33:13;9.60;99.90
2387;DHT22;49473;50.772;8.768;2023-04-19T05:35:39;9.60;99.90
2387;DHT22;49473;50.772;8.768;2023-04-19T05:38:06;9.60;99.90
2387;DHT22;49473;50.772;8.768;2023-04-19T05:40:34;9.60;99.90
2387;DHT22;49473;50.772;8.768;2023-04-19T05:43:01;9.50;99.90
2387;DHT22;49473;50.772;8.768;2023-04-19T05:45:28;9.50;99.90
2387;DHT22;49473;50.772;8.768;2023-04-19T05:47:55;9.50;99.90
2387;DHT22;49473;50.772;8.768;2023-04-19T05:50:23;9.50;99.90
2387;DHT22;49473;50.772;8.768;2023-04-19T05:52:49;9.50;99.90
2387;DHT22;49473;50.772;8.768;2023-04-19T05:55:16;9.50;99.90
2387;DHT22;49473;50.772;8.768;2023-04-19T05:57:44;9.60;99.90
2387;DHT22;49473;50.772;8.768;2023-04-19T06:00:12;9.60;99.90
2387;DHT22;49473;50.772;8.768;2023-04-19T06:02:39;9.60;99.90
2387;DHT22;49473;50.772;8.768;2023-04-19T06:05:06;9.70;99.90
2387;DHT22;49473;50.772;8.768;2023-04-19T06:07:33;9.70;99.90
2387;DHT22;49473;50.772;8.768;2023-04-19T06:10:00;9.70;99.90
2387;DHT22;49473;50.772;8.768;2023-04-19T06:12:26;9.60;99.90
2387;DHT22;49473;50.772;8.768;2023-04-19T06:14:54;9.60;99.90
2387;DHT22;49473;50.772;8.768;2023-04-19T06:17:21;9.60;99.90
2387;DHT22;49473;50.772;8.768;2023-04-19T06:19:49;9.60;99.90
2387;DHT22;49473;50.772;8.768;2023-04-19T06:22:16;9.70;99.90
2387;DHT22;49473;50.772;8.768;2023-04-19T06:24:43;9.70;99.90
2387;DHT22;49473;50.772;8.768;2023-04-19T06:27:10;9.90;99.90
2387;DHT22;49473;50.772;8.768;2023-04-19T06:29:37;10.00;99.90
2387;DHT22;49473;50.772;8.768;2023-04-19T06:32:05;10.10;99.90
2387;DHT22;49473;50.772;8.768;2023-04-19T06:34:32;10.00;99.90
2387;DHT22;49473;50.772;8.768;2023-04-19T06:36:59;10.10;99.90
2387;DHT22;49473;50.772;8.768;2023-04-19T06:39:25;10.30;99.90
2387;DHT22;49473;50.772;8.768;2023-04-19T06:41:52;10.30;99.90
2387;DHT22;49473;50.772;8.768;2023-04-19T06:44:19;10.40;99.90
2387;DHT22;49473;50.772;8.768;2023-04-19T06:46:46;10.50;99.90
2387;DHT22;49473;50.772;8.768;2023-04-19T06:49:14;10.70;99.90
2387;DHT22;49473;50.772;8.768;2023-04-19T06:51:41;10.80;99.90
2387;DHT22;49473;50.772;8.768;2023-04-19T06:54:08;10.90;99.90
2387;DHT22;49473;50.772;8.768;2023-04-19T06:56:42;10.90;99.90
2387;DHT22;49473;50.772;8.768;2023-04-19T06:59:10;10.90;99.90
2387;DHT22;49473;50.772;8.768;2023-04-19T07:01:37;10.90;99.90
2387;DHT22;49473;50.772;8.768;2023-04-19T07:04:04;10.90;99.90
2387;DHT22;49473;50.772;8.768;2023-04-19T07:06:33;10.70;99.90
2387;DHT22;49473;50.772;8.768;2023-04-19T07:09:00;10.60;99.90
2387;DHT22;49473;50.772;8.768;2023-04-19T07:11:27;10.60;99.90
2387;DHT22;49473;50.772;8.768;2023-04-19T07:13:53;10.60;99.90
2387;DHT22;49473;50.772;8.768;2023-04-19T07:16:20;10.60;99.90
2387;DHT22;49473;50.772;8.768;2023-04-19T07:18:47;10.60;99.90
2387;DHT22;49473;50.772;8.768;2023-04-19T07:21:14;10.70;99.90
2387;DHT22;49473;50.772;8.768;2023-04-19T07:23:42;10.70;99.90
2387;DHT22;49473;50.772;8.768;2023-04-19T07:26:09;10.90;99.90
2387;DHT22;49473;50.772;8.768;2023-04-19T07:28:36;11.60;99.90
2387;DHT22;49473;50.772;8.768;2023-04-19T07:31:02;12.20;99.90
2387;DHT22;49473;50.772;8.768;2023-04-19T07:33:29;12.70;99.90
2387;DHT22;49473;50.772;8.768;2023-04-19T07:35:56;13.20;99.90
2387;DHT22;49473;50.772;8.768;2023-04-19T07:38:23;13.60;99.90
2387;DHT22;49473;50.772;8.768;2023-04-19T07:40:51;14.20;99.90
2387;DHT22;49473;50.772;8.768;2023-04-19T07:43:18;14.60;99.90
2387;DHT22;49473;50.772;8.768;2023-04-19T07:45:45;14.20;99.90
2387;DHT22;49473;50.772;8.768;2023-04-19T07:48:12;14.30;99.90
2387;DHT22;49473;50.772;8.768;2023-04-19T07:50:38;14.60;99.90
2387;DHT22;49473;50.772;8.768;2023-04-19T07:53:05;14.80;99.90
2387;DHT22;49473;50.772;8.768;2023-04-19T07:55:32;14.60;99.90
2387;DHT22;49473;50.772;8.768;2023-04-19T07:58:01;13.90;99.90
2387;DHT22;49473;50.772;8.768;2023-04-19T08:00:28;13.80;99.90
2387;DHT22;49473;50.772;8.768;2023-04-19T08:02:56;14.00;99.90
2387;DHT22;49473;50.772;8.768;2023-04-19T08:05:22;14.00;99.90
2387;DHT22;49473;50.772;8.768;2023-04-19T08:07:51;14.10;99.90
2387;DHT22;49473;50.772;8.768;2023-04-19T08:10:18;14.30;99.90
2387;DHT22;49473;50.772;8.768;2023-04-19T08:12:45;14.60;99.90
2387;DHT22;49473;50.772;8.768;2023-04-19T08:15:13;14.90;99.90
2387;DHT22;49473;50.772;8.768;2023-04-19T08:17:40;15.20;99.90
2387;DHT22;49473;50.772;8.768;2023-04-19T08:20:09;15.40;99.90
2387;DHT22;49473;50.772;8.768;2023-04-19T08:22:36;15.70;99.90
2387;DHT22;49473;50.772;8.768;2023-04-19T08:25:04;15.90;99.90
2387;DHT22;49473;50.772;8.768;2023-04-19T08:27:31;15.10;99.90
2387;DHT22;49473;50.772;8.768;2023-04-19T08:29:58;14.80;99.90
2387;DHT22;49473;50.772;8.768;2023-04-19T08:32:26;14.90;99.90
2387;DHT22;49473;50.772;8.768;2023-04-19T08:34:52;14.90;99.90
2387;DHT22;49473;50.772;8.768;2023-04-19T08:37:20;14.90;99.90
2387;DHT22;49473;50.772;8.768;2023-04-19T08:39:46;14.90;99.40
2387;DHT22;49473;50.772;8.768;2023-04-19T08:42:13;14.50;98.70
2387;DHT22;49473;50.772;8.768;2023-04-19T08:44:40;14.70;99.90
2387;DHT22;49473;50.772;8.768;2023-04-19T08:47:10;15.00;98.30
2387;DHT22;49473;50.772;8.768;2023-04-19T08:49:39;14.40;98.40
2387;DHT22;49473;50.772;8.768;2023-04-19T08:52:06;13.30;97.50
2387;DHT22;49473;50.772;8.768;2023-04-19T08:54:34;13.50;99.90
2387;DHT22;49473;50.772;8.768;2023-04-19T08:57:01;14.20;99.90
2387;DHT22;49473;50.772;8.768;2023-04-19T08:59:28;14.30;99.50
2387;DHT22;49473;50.772;8.768;2023-04-19T09:01:59;14.60;97.30
2387;DHT22;49473;50.772;8.768;2023-04-19T09:04:26;15.20;98.90
2387;DHT22;49473;50.772;8.768;2023-04-19T09:06:54;15.80;95.60
2387;DHT22;49473;50.772;8.768;2023-04-19T09:09:22;15.20;94.90
2387;DHT22;49473;50.772;8.768;2023-04-19T09:11:49;15.80;95.80
2387;DHT22;49473;50.772;8.768;2023-04-19T09:14:19;17.00;95.30
2387;DHT22;49473;50.772;8.768;2023-04-19T09:16:47;17.20;91.70
2387;DHT22;49473;50.772;8.768;2023-04-19T09:19:13;17.60;89.50
2387;DHT22;49473;50.772;8.768;2023-04-19T09:21:41;17.10;89.20
2387;DHT22;49473;50.772;8.768;2023-04-19T09:24:09;17.30;87.70
2387;DHT22;49473;50.772;8.768;2023-04-19T09:26:36;16.00;86.50
2387;DHT22;49473;50.772;8.768;2023-04-19T09:29:04;15.70;89.40
2387;DHT22;49473;50.772;8.768;2023-04-19T09:31:32;15.60;88.00
2387;DHT22;49473;50.772;8.768;2023-04-19T09:34:11;16.30;88.80
2387;DHT22;49473;50.772;8.768;2023-04-19T09:36:39;17.60;88.60
2387;DHT22;49473;50.772;8.768;2023-04-19T09:39:06;18.80;84.60
2387;DHT22;49473;50.772;8.768;2023-04-19T09:41:35;19.50;82.10
2387;DHT22;49473;50.772;8.768;2023-04-19T09:44:15;19.50;75.50
2387;DHT22;49473;50.772;8.768;2023-04-19T09:46:43;18.90;77.30
2387;DHT22;49473;50.772;8.768;2023-04-19T09:49:18;18.50;72.30
2387;DHT22;49473;50.772;8.768;2023-04-19T09:51:46;18.60;73.40
2387;DHT22;49473;50.772;8.768;2023-04-19T09:54:15;18.50;73.30
2387;DHT22;49473;50.772;8.768;2023-04-19T09:56:44;18.80;73.40
2387;DHT22;49473;50.772;8.768;2023-04-19T09:59:11;19.30;71.90
2387;DHT22;49473;50.772;8.768;2023-04-19T10:01:39;19.30;72.60
2387;DHT22;49473;50.772;8.768;2023-04-19T10:04:09;20.10;72.60
2387;DHT22;49473;50.772;8.768;2023-04-19T10:06:37;19.20;69.00
2387;DHT22;49473;50.772;8.768;2023-04-19T10:09:05;19.60;71.60
2387;DHT22;49473;50.772;8.768;2023-04-19T10:11:33;20.40;71.00
2387;DHT22;49473;50.772;8.768;2023-04-19T10:14:05;21.10;63.80
2387;DHT22;49473;50.772;8.768;2023-04-19T10:16:33;22.00;64.70
2387;DHT22;49473;50.772;8.768;2023-04-19T10:19:02;23.40;65.80
2387;DHT22;49473;50.772;8.768;2023-04-19T10:21:29;23.60;57.30
2387;DHT22;49473;50.772;8.768;2023-04-19T10:23:57;21.50;56.90
2387;DHT22;49473;50.772;8.768;2023-04-19T10:26:25;20.70;58.10
2387;DHT22;49473;50.772;8.768;2023-04-19T10:28:53;21.20;58.90
2387;DHT22;49473;50.772;8.768;2023-04-19T10:31:24;21.90;57.10
2387;DHT22;49473;50.772;8.768;2023-04-19T10:33:51;21.00;53.00
2387;DHT22;49473;50.772;8.768;2023-04-19T10:36:19;21.00;55.90
2387;DHT22;49473;50.772;8.768;2023-04-19T10:38:47;21.00;55.60
2387;DHT22;49473;50.772;8.768;2023-04-19T10:41:16;22.40;57.20
2387;DHT22;49473;50.772;8.768;2023-04-19T10:43:45;24.10;56.30
2387;DHT22;49473;50.772;8.768;2023-04-19T10:46:14;23.80;53.10
2387;DHT22;49473;50.772;8.768;2023-04-19T10:48:53;24.50;54.20
2387;DHT22;49473;50.772;8.768;2023-04-19T10:51:25;22.90;49.60
2387;DHT22;49473;50.772;8.768;2023-04-19T10:53:56;22.70;49.00
2387;DHT22;49473;50.772;8.768;2023-04-19T10:56:57;21.50;48.80
2387;DHT22;49473;50.772;8.768;2023-04-19T10:59:29;21.00;50.50
2387;DHT22;49473;50.772;8.768;2023-04-19T11:01:57;20.00;50.10
2387;DHT22;49473;50.772;8.768;2023-04-19T11:05:00;20.60;50.60
2387;DHT22;49473;50.772;8.768;2023-04-19T11:07:36;19.80;49.00
2387;DHT22;49473;50.772;8.768;2023-04-19T11:10:03;19.00;49.90
2387;DHT22;49473;50.772;8.768;2023-04-19T11:12:31;18.20;50.80
2387;DHT22;49473;50.772;8.768;2023-04-19T11:14:59;18.70;54.20
2387;DHT22;49473;50.772;8.768;2023-04-19T11:17:28;18.50;51.30
2387;DHT22;49473;50.772;8.768;2023-04-19T11:19:57;19.30;52.50
2387;DHT22;49473;50.772;8.768;2023-04-19T11:22:29;19.50;51.80
2387;DHT22;49473;50.772;8.768;2023-04-19T11:25:04;19.50;50.80
2387;DHT22;49473;50.772;8.768;2023-04-19T11:27:32;19.50;50.60
2387;DHT22;49473;50.772;8.768;2023-04-19T11:30:03;20.70;53.50
2387;DHT22;49473;50.772;8.768;2023-04-19T11:32:30;21.20;49.90
2387;DHT22;49473;50.772;8.768;2023-04-19T11:34:57;21.50;51.90
2387;DHT22;49473;50.772;8.768;2023-04-19T11:37:23;22.30;51.50
2387;DHT22;49473;50.772;8.768;2023-04-19T11:39:51;22.60;49.20
2387;DHT22;49473;50.772;8.768;2023-04-19T11:42:19;22.90;48.90
2387;DHT22;49473;50.772;8.768;2023-04-19T11:44:49;20.70;47.80
2387;DHT22;49473;50.772;8.768;2023-04-19T11:47:17;21.20;50.80
2387;DHT22;49473;50.772;8.768;2023-04-19T11:49:44;20.60;47.50
2387;DHT22;49473;50.772;8.768;2023-04-19T11:52:10;19.80;48.60
2387;DHT22;49473;50.772;8.768;2023-04-19T11:54:37;21.50;51.60
2387;DHT22;49473;50.772;8.768;2023-04-19T11:57:07;21.10;47.10
2387;DHT22;49473;50.772;8.768;2023-04-19T11:59:35;21.60;47.60
2387;DHT22;49473;50.772;8.768;2023-04-19T12:02:06;20.50;45.10
2387;DHT22;49473;50.772;8.768;2023-04-19T12:04:33;21.00;45.00
2387;DHT22;49473;50.772;8.768;2023-04-19T12:07:01;19.50;45.30
2387;DHT22;49473;50.772;8.768;2023-04-19T12:09:28;20.10;48.20
2387;DHT22;49473;50.772;8.768;2023-04-19T12:11:55;21.00;44.50
2387;DHT22;49473;50.772;8.768;2023-04-19T12:14:24;21.40;44.30
2387;DHT22;49473;50.772;8.768;2023-04-19T12:17:05;21.70;43.20
2387;DHT22;49473;50.772;8.768;2023-04-19T12:19:34;20.20;45.20
2387;DHT22;49473;50.772;8.768;2023-04-19T12:22:07;21.20;47.80
2387;DHT22;49473;50.772;8.768;2023-04-19T12:24:34;22.60;47.20
2387;DHT22;49473;50.772;8.768;2023-04-19T12:27:01;23.00;47.00
2387;DHT22;49473;50.772;8.768;2023-04-19T12:29:29;23.00;45.60
2387;DHT22;49473;50.772;8.768;2023-04-19T12:31:56;23.00;45.70
2387;DHT22;49473;50.772;8.768;2023-04-19T12:34:23;20.90;45.50
2387;DHT22;49473;50.772;8.768;2023-04-19T12:36:49;20.00;46.10
2387;DHT22;49473;50.772;8.768;2023-04-19T12:39:16;21.60;48.20
2387;DHT22;49473;50.772;8.768;2023-04-19T12:41:43;22.70;46.70
2387;DHT22;49473;50.772;8.768;2023-04-19T12:44:10;21.60;47.20
2387;DHT22;49473;50.772;8.768;2023-04-19T12:46:38;21.50;48.50
2387;DHT22;49473;50.772;8.768;2023-04-19T12:49:05;20.70;46.80
2387;DHT22;49473;50.772;8.768;2023-04-19T12:51:31;21.20;48.60
2387;DHT22;49473;50.772;8.768;2023-04-19T12:53:58;22.80;47.50
2387;DHT22;49473;50.772;8.768;2023-04-19T12:56:25;22.30;46.70
2387;DHT22;49473;50.772;8.768;2023-04-19T12:58:52;22.90;46.90
2387;DHT22;49473;50.772;8.768;2023-04-19T13:01:18;20.90;45.30
2387;DHT22;49473;50.772;8.768;2023-04-19T13:03:46;20.10;46.50
2387;DHT22;49473;50.772;8.768;2023-04-19T13:06:13;20.60;47.80
2387;DHT22;49473;50.772;8.768;2023-04-19T13:08:41;20.40;45.60
2387;DHT22;49473;50.772;8.768;2023-04-19T13:11:08;20.80;46.80
2387;DHT22;49473;50.772;8.768;2023-04-19T13:13:34;22.40;48.10
2387;DHT22;49473;50.772;8.768;2023-04-19T13:16:01;23.50;46.90
2387;DHT22;49473;50.772;8.768;2023-04-19T13:18:29;21.60;44.90
2387;DHT22;49473;50.772;8.768;2023-04-19T13:20:57;20.60;46.30
2387;DHT22;49473;50.772;8.768;2023-04-19T13:23:24;22.30;46.90
2387;DHT22;49473;50.772;8.768;2023-04-19T13:25:50;23.20;46.80
2387;DHT22;49473;50.772;8.768;2023-04-19T13:28:17;24.20;44.90
2387;DHT22;49473;50.772;8.768;2023-04-19T13:30:44;24.80;44.10
2387;DHT22;49473;50.772;8.768;2023-04-19T13:33:11;25.30;44.20
2387;DHT22;49473;50.772;8.768;2023-04-19T13:35:37;25.50;44.20
2387;DHT22;49473;50.772;8.768;2023-04-19T13:38:05;22.30;43.30
2387;DHT22;49473;50.772;8.768;2023-04-19T13:40:32;22.70;45.50
2387;DHT22;49473;50.772;8.768;2023-04-19T13:42:59;22.80;45.70
2387;DHT22;49473;50.772;8.768;2023-04-19T13:45:25;23.20;44.10
2387;DHT22;49473;50.772;8.768;2023-04-19T13:47:52;23.20;44.10
2387;DHT22;49473;50.772;8.768;2023-04-19T13:50:19;23.10;41.90
2387;DHT22;49473;50.772;8.768;2023-04-19T13:52:46;22.50;41.90
2387;DHT22;49473;50.772;8.768;2023-04-19T13:55:14;21.50;43.00
2387;DHT22;49473;50.772;8.768;2023-04-19T13:57:40;21.30;41.70
2387;DHT22;49473;50.772;8.768;2023-04-19T14:00:08;21.00;42.90
2387;DHT22;49473;50.772;8.768;2023-04-19T14:02:35;20.00;42.50
2387;DHT22;49473;50.772;8.768;2023-04-19T14:05:02;18.80;43.60
2387;DHT22;49473;50.772;8.768;2023-04-19T14:07:30;17.80;44.80
2387;DHT22;49473;50.772;8.768;2023-04-19T14:09:58;16.80;45.30
2387;DHT22;49473;50.772;8.768;2023-04-19T14:12:26;16.00;47.60
2387;DHT22;49473;50.772;8.768;2023-04-19T14:14:53;15.80;47.20
2387;DHT22;49473;50.772;8.768;2023-04-19T14:17:20;16.00;49.70
2387;DHT22;49473;50.772;8.768;2023-04-19T14:19:47;15.80;47.50
2387;DHT22;49473;50.772;8.768;2023-04-19T14:22:15;15.20;46.90
2387;DHT22;49473;50.772;8.768;2023-04-19T14:24:42;15.30;47.00
2387;DHT22;49473;50.772;8.768;2023-04-19T14:27:11;15.50;45.90
2387;DHT22;49473;50.772;8.768;2023-04-19T14:29:39;15.70;45.90
2387;DHT22;49473;50.772;8.768;2023-04-19T14:32:06;15.50;46.80
2387;DHT22;49473;50.772;8.768;2023-04-19T14:34:33;14.90;47.10
2387;DHT22;49473;50.772;8.768;2023-04-19T14:36:59;14.50;49.30
2387;DHT22;49473;50.772;8.768;2023-04-19T14:39:27;14.50;49.40
2387;DHT22;49473;50.772;8.768;2023-04-19T14:41:53;14.40;50.70
2387;DHT22;49473;50.772;8.768;2023-04-19T14:44:22;14.30;51.20
2387;DHT22;49473;50.772;8.768;2023-04-19T14:46:50;14.30;50.90
2387;DHT22;49473;50.772;8.768;2023-04-19T14:49:17;14.30;51.60
2387;DHT22;49473;50.772;8.768;2023-04-19T14:51:44;14.20;51.50
2387;DHT22;49473;50.772;8.768;2023-04-19T14:54:10;14.10;51.80
2387;DHT22;49473;50.772;8.768;2023-04-19T14:56:37;13.90;51.10
2387;DHT22;49473;50.772;8.768;2023-04-19T14:59:05;14.10;52.00
2387;DHT22;49473;50.772;8.768;2023-04-19T15:01:32;14.10;52.00
2387;DHT22;49473;50.772;8.768;2023-04-19T15:04:00;13.90;52.70
2387;DHT22;49473;50.772;8.768;2023-04-19T15:06:27;13.90;51.50
2387;DHT22;49473;50.772;8.768;2023-04-19T15:08:54;13.70;50.80
2387;DHT22;49473;50.772;8.768;2023-04-19T15:11:20;13.70;52.20
2387;DHT22;49473;50.772;8.768;2023-04-19T15:13:47;13.70;52.70
2387;DHT22;49473;50.772;8.768;2023-04-19T15:16:14;13.70;52.80
2387;DHT22;49473;50.772;8.768;2023-04-19T15:18:40;13.70;51.60
2387;DHT22;49473;50.772;8.768;2023-04-19T15:21:09;13.30;49.50
2387;DHT22;49473;50.772;8.768;2023-04-19T15:23:35;13.10;50.00
2387;DHT22;49473;50.772;8.768;2023-04-19T15:26:02;13.10;51.20
2387;DHT22;49473;50.772;8.768;2023-04-19T15:28:32;13.00;51.20
2387;DHT22;49473;50.772;8.768;2023-04-19T15:31:02;13.00;49.90
2387;DHT22;49473;50.772;8.768;2023-04-19T15:33:29;12.90;49.70
2387;DHT22;49473;50.772;8.768;2023-04-19T15:35:58;12.90;49.80
2387;DHT22;49473;50.772;8.768;2023-04-19T15:38:27;13.00;51.60
2387;DHT22;49473;50.772;8.768;2023-04-19T15:40:55;13.20;52.00
2387;DHT22;49473;50.772;8.768;2023-04-19T15:43:22;13.30;53.30
2387;DHT22;49473;50.772;8.768;2023-04-19T15:45:50;13.30;52.80
2387;DHT22;49473;50.772;8.768;2023-04-19T15:48:17;13.00;53.60
2387;DHT22;49473;50.772;8.768;2023-04-19T15:50:44;12.90;52.20